Maersk Essen — V7UQ8 — position and weather

sailwx.info

Track history (hours):
 
Tides and Currents Weather Stations Pressure Air Temp Water Temp Dewpoint Dewpoint Depression Visibility Wind Speed Wind Dir Waves Ship Positions

Maersk Essen

Last reported at 2016-Aug-26 02:31 UTC. Time now 2016-Aug-26 03:14 UTC.
Position N 50°54' W 001°27'.

Length 367 m; draft 9.7 m.

Type: Ship (hazmat cat A). MMSI: 538004007.

Date/timePositionNaut miles runAvg speedWind from/ knotsBaromVisibWave heightAir tempDewpointWater temp
2016-Aug-26 02:31N 50°54' W 001°27'0 0.0
2016-Aug-26 01:31N 50°54' W 001°27'0 0.0
2016-Aug-26 00:13N 50°54' W 001°27'0 0.0
2016-Aug-25 23:28N 50°54' W 001°27'0 0.0
2016-Aug-25 22:31N 50°54' W 001°27'0 0.0
2016-Aug-25 21:31N 50°54' W 001°27'0 0.0
2016-Aug-25 20:31N 50°54' W 001°27'0 0.0
2016-Aug-25 19:28N 50°54' W 001°27'0 0.0
2016-Aug-25 18:31N 50°54' W 001°27'0 0.0
2016-Aug-25 17:28N 50°54' W 001°27'0 0.0
2016-Aug-25 16:31N 50°54' W 001°27'0 0.0
2016-Aug-25 15:31N 50°54' W 001°27'0 0.0
2016-Aug-25 14:31N 50°54' W 001°27'0 0.0
2016-Aug-25 13:04N 50°54' W 001°27'0 0.0
2016-Aug-25 12:34N 50°54' W 001°27'4 4.2
2016-Aug-25 11:34N 50°52' W 001°22'9 9.4
2016-Aug-25 10:33N 50°46' W 001°10'1313.3
2016-Aug-25 09:34N 50°35' W 000°58'7 7.4
2016-Aug-25 08:33N 50°28' W 001°01'2 2.1
2016-Aug-25 07:33N 50°28' W 000°58'1 0.7
2016-Aug-25 06:33N 50°28' W 000°57'1 0.5
2016-Aug-25 04:33N 50°29' W 000°55'1 0.7
2016-Aug-25 03:33N 50°28' W 000°55'1 0.5
2016-Aug-25 02:33N 50°29' W 000°55'0 0.3
2016-Aug-25 01:33N 50°28' W 000°55'5 4.9
2016-Aug-25 00:33N 50°24' W 000°50'9 8.9
2016-Aug-24 23:33N 50°16' W 000°52'10 9.6
2016-Aug-24 22:33N 50°06' W 000°52'8 8.2
2016-Aug-24 21:33N 49°60' W 000°44'10 9.7
2016-Aug-24 20:33N 49°50' W 000°39'1211.9
2016-Aug-24 19:33N 49°43' W 000°25'1212.1
2016-Aug-24 18:33N 49°37' W 000°08'1211.5
2016-Aug-24 17:33N 49°29' E 000°04'3 2.8
2016-Aug-24 16:32N 49°28' E 000°08'0 0.0
2016-Aug-24 15:32N 49°28' E 000°08'0 0.0
2016-Aug-24 14:31N 49°28' E 000°08'0 0.0
2016-Aug-24 13:28N 49°28' E 000°08'0 0.0
2016-Aug-24 12:32N 49°28' E 000°08'0 0.0
2016-Aug-24 11:31N 49°28' E 000°08'0 0.0
2016-Aug-24 10:32N 49°28' E 000°08'0 0.0
2016-Aug-24 09:31N 49°28' E 000°08'0 0.0
2016-Aug-24 08:31N 49°28' E 000°08'0 0.0
2016-Aug-24 07:31N 49°28' E 000°08'0 0.0
2016-Aug-24 06:31N 49°28' E 000°08'0 0.0
2016-Aug-24 04:31N 49°28' E 000°08'0 0.0
2016-Aug-24 03:31N 49°28' E 000°08'0 0.0
2016-Aug-24 02:31N 49°28' E 000°08'0 0.0
2016-Aug-24 01:31N 49°28' E 000°08'0 0.0
2016-Aug-24 00:31N 49°28' E 000°08'0 0.0
2016-Aug-23 23:31N 49°28' E 000°08'0 0.0
2016-Aug-23 22:32N 49°28' E 000°08'0 0.0
2016-Aug-23 21:31N 49°28' E 000°08'0 0.0
2016-Aug-23 20:31N 49°28' E 000°08'0 0.0
2016-Aug-23 19:31N 49°28' E 000°08'1 0.6
2016-Aug-23 18:34N 49°27' E 000°09'1212.1
2016-Aug-23 17:33N 49°32' W 000°08'8 8.2
2016-Aug-23 16:33N 49°40' W 000°11'1111.0
2016-Aug-23 15:33N 49°51' W 000°08'1110.9
2016-Aug-23 14:33N 50°02' W 000°05'1010.3
2016-Aug-23 13:33N 50°12' W 000°03'10 9.9
2016-Aug-23 12:33N 50°22' W 000°04'8 8.3
2016-Aug-23 11:33N 50°29' E 000°04'1010.0
2016-Aug-23 10:33N 50°31' E 000°19'1312.6
2016-Aug-23 09:31N 50°36' E 000°38'1714.4
2016-Aug-23 08:20N 50°46' E 001°00'1114.5
2016-Aug-23 07:34N 50°52' E 001°15'1413.6
2016-Aug-23 06:33N 51°02' E 001°29'1111.4
2016-Aug-23 05:33N 51°11' E 001°41'1110.5
2016-Aug-23 04:33N 51°19' E 001°51'9 9.4
2016-Aug-23 03:33N 51°25' E 002°04'1111.3
2016-Aug-23 02:33N 51°21' E 002°20'1211.5
2016-Aug-23 01:33N 51°23' E 002°39'1413.6
2016-Aug-23 00:33N 51°24' E 003°00'1514.5
2016-Aug-22 23:33N 51°25' E 003°24'1211.8
2016-Aug-22 22:33N 51°24' E 003°43'1111.2
2016-Aug-22 21:33N 51°26' E 004°00'1211.8
2016-Aug-22 20:33N 51°20' E 004°16'3 2.6
2016-Aug-22 19:32N 51°17' E 004°15'0 0.0
2016-Aug-22 18:32N 51°17' E 004°15'0 0.0
2016-Aug-22 17:32N 51°17' E 004°15'0 0.0
2016-Aug-22 16:32N 51°17' E 004°15'0 0.0
2016-Aug-22 15:32N 51°17' E 004°15'0 0.0
2016-Aug-22 14:32N 51°17' E 004°15'0 0.0
2016-Aug-22 13:32N 51°17' E 004°15'0 0.0
2016-Aug-22 12:29N 51°17' E 004°15'0 0.0
2016-Aug-22 11:32N 51°17' E 004°15'0 0.0
2016-Aug-22 10:32N 51°17' E 004°15'0 0.0
2016-Aug-22 09:32N 51°17' E 004°15'0 0.0
2016-Aug-22 08:32N 51°17' E 004°15'0 0.0
2016-Aug-22 07:32N 51°17' E 004°15'0 0.0
2016-Aug-22 06:32N 51°17' E 004°15'0 0.0
2016-Aug-22 05:32N 51°17' E 004°15'0 0.0
2016-Aug-22 04:32N 51°17' E 004°15'0 0.0
2016-Aug-22 03:32N 51°17' E 004°15'0 0.0
2016-Aug-22 02:32N 51°17' E 004°15'0 0.0
2016-Aug-22 01:32N 51°17' E 004°15'0 0.0
2016-Aug-22 00:32N 51°17' E 004°15'0 0.0
2016-Aug-21 23:32N 51°17' E 004°15'0 0.0
2016-Aug-21 22:32N 51°17' E 004°15'0 0.0
2016-Aug-21 21:32N 51°17' E 004°15'0 0.0
2016-Aug-21 20:32N 51°17' E 004°15'0 0.0
2016-Aug-21 19:32N 51°17' E 004°15'0 0.0
2016-Aug-21 18:32N 51°17' E 004°15'0 0.0
2016-Aug-21 17:32N 51°17' E 004°15'0 0.0
2016-Aug-21 16:32N 51°17' E 004°15'0 0.0
2016-Aug-21 15:32N 51°17' E 004°15'0 0.4
2016-Aug-21 14:33N 51°18' E 004°16'6 5.9
2016-Aug-21 13:33N 51°23' E 004°13'1010.2
2016-Aug-21 12:33N 51°23' E 003°56'1312.6
2016-Aug-21 11:33N 51°26' E 003°37'1413.6
2016-Aug-21 10:33N 51°24' E 003°15'1616.5
2016-Aug-21 09:34N 51°25' E 002°49'1110.8
2016-Aug-21 08:33N 51°22' E 002°33'1616.2
2016-Aug-21 07:33N 51°15' E 002°10'2020.0
2016-Aug-21 06:34N 51°05' E 001°42'2120.4
2016-Aug-21 05:33N 50°47' E 001°25'4419.4
2016-Aug-21 03:17N 50°25' E 000°25'1520.4
2016-Aug-21 02:33N 50°21' E 000°03'2020.0
2016-Aug-21 01:33N 50°15' W 000°27'8621.5
2016-Aug-20 21:32N 49°53' W 002°37'2222.7
2016-Aug-20 20:33N 49°45' W 003°10'7622.0
2016-Aug-20 17:05N 49°06' W 004°50'1321.7
2016-Aug-20 16:30N 48°58' W 005°06'2021.4
2016-Aug-20 15:33N 48°48' W 005°32'2020.0
2016-Aug-20 14:33N 48°31' W 005°48'58918.4
2016-Aug-19 06:31N 39°09' W 009°51'3618.1
2016-Aug-19 04:32N 38°34' W 009°45'1919.5
2016-Aug-19 03:34N 38°20' W 009°28'1919.2
2016-Aug-19 02:33N 38°06' W 009°11'1918.7
2016-Aug-19 01:33N 37°54' W 008°53'3 2.9
2016-Aug-19 00:31N 37°56' W 008°51'0 0.0
2016-Aug-18 23:31N 37°56' W 008°51'0 0.0
2016-Aug-18 22:31N 37°56' W 008°51'0 0.0
2016-Aug-18 21:31N 37°56' W 008°51'0 0.0
2016-Aug-18 20:31N 37°56' W 008°51'0 0.0
2016-Aug-18 19:31N 37°56' W 008°51'0 0.0
2016-Aug-18 18:31N 37°56' W 008°51'0 0.0
2016-Aug-18 17:25N 37°56' W 008°51'0 0.0
2016-Aug-18 16:31N 37°56' W 008°51'0 0.0
2016-Aug-18 15:31N 37°56' W 008°51'0 0.0
2016-Aug-18 14:31N 37°56' W 008°51'0 0.0
2016-Aug-18 13:31N 37°56' W 008°51'0 0.0
2016-Aug-18 12:31N 37°56' W 008°51'0 0.0
2016-Aug-18 11:28N 37°56' W 008°51'0 0.0
2016-Aug-18 10:31N 37°56' W 008°51'0 0.0
2016-Aug-18 09:31N 37°56' W 008°51'0 0.0
2016-Aug-18 08:31N 37°56' W 008°51'0 0.0
2016-Aug-18 07:33N 37°56' W 008°51'0 0.0
2016-Aug-18 06:33N 37°56' W 008°51'0 0.0
2016-Aug-18 05:34N 37°56' W 008°51'0 0.3
2016-Aug-18 04:33N 37°56' W 008°50'5 4.5
2016-Aug-18 03:33N 37°51' W 008°52'1212.0
2016-Aug-18 02:33N 37°40' W 008°58'1212.6
2016-Aug-18 01:33N 37°30' W 009°08'1212.0
2016-Aug-18 00:33N 37°19' W 009°13'1212.0
2016-Aug-17 23:33N 37°08' W 009°19'1111.4
2016-Aug-17 22:33N 36°57' W 009°20'1211.6
2016-Aug-17 21:33N 36°47' W 009°11'1111.4
2016-Aug-17 20:33N 36°42' W 008°59'1111.4
2016-Aug-17 19:33N 36°38' W 008°46'1211.8
2016-Aug-17 18:33N 36°34' W 008°32'1111.3
2016-Aug-17 17:33N 36°31' W 008°18'1111.4
2016-Aug-17 16:33N 36°27' W 008°05'1711.9
2016-Aug-17 15:09N 36°22' W 007°45'712.2
2016-Aug-17 14:33N 36°20' W 007°37'9112.6
2016-Aug-17 07:20N 35°58' W 005°47'911.2
2016-Aug-17 06:33N 35°58' W 005°36'1211.9
2016-Aug-17 05:34N 36°01' W 005°22'1312.7
2016-Aug-17 04:33N 36°05' W 005°07'1212.4
2016-Aug-17 03:33N 36°08' W 004°52'8311.7
2016-Aug-16 20:30N 36°18' W 003°11'1612.5
2016-Aug-16 19:14N 36°21' W 002°51'913.2
2016-Aug-16 18:33N 36°23' W 002°41'1313.3
2016-Aug-16 17:33N 36°24' W 002°24'1514.6
2016-Aug-16 16:32N 36°27' W 002°06'2219.2
2016-Aug-16 15:25N 36°33' W 001°40'1719.4
2016-Aug-16 14:33N 36°36' W 001°20'2519.3
2016-Aug-16 13:16N 36°43' W 000°50'3718.5
2016-Aug-16 11:17N 36°51' W 000°05'12418.4
2016-Aug-16 04:33N 37°22' E 002°26'  
Track history (hours):
 
Tides and Currents Weather Stations Pressure Air Temp Water Temp Dewpoint Dewpoint Depression Visibility Wind Speed Wind Dir Waves Ship Positions

Maersk Essen

Last reported at 2016-Aug-26 02:31 UTC. Time now 2016-Aug-26 03:14 UTC.
Position N 50°54' W 001°27'.

Length 367 m; draft 9.7 m.

Type: Ship (hazmat cat A). MMSI: 538004007.

Date/timePositionNaut miles runAvg speedWind from/ knotsBaromVisibWave heightAir tempDewpointWater temp
2016-Aug-26 02:31N 50°54' W 001°27'0 0.0
2016-Aug-26 01:31N 50°54' W 001°27'0 0.0
2016-Aug-26 00:13N 50°54' W 001°27'0 0.0
2016-Aug-25 23:28N 50°54' W 001°27'0 0.0
2016-Aug-25 22:31N 50°54' W 001°27'0 0.0
2016-Aug-25 21:31N 50°54' W 001°27'0 0.0
2016-Aug-25 20:31N 50°54' W 001°27'0 0.0
2016-Aug-25 19:28N 50°54' W 001°27'0 0.0
2016-Aug-25 18:31N 50°54' W 001°27'0 0.0
2016-Aug-25 17:28N 50°54' W 001°27'0 0.0
2016-Aug-25 16:31N 50°54' W 001°27'0 0.0
2016-Aug-25 15:31N 50°54' W 001°27'0 0.0
2016-Aug-25 14:31N 50°54' W 001°27'0 0.0
2016-Aug-25 13:04N 50°54' W 001°27'0 0.0
2016-Aug-25 12:34N 50°54' W 001°27'4 4.2
2016-Aug-25 11:34N 50°52' W 001°22'9 9.4
2016-Aug-25 10:33N 50°46' W 001°10'1313.3
2016-Aug-25 09:34N 50°35' W 000°58'7 7.4
2016-Aug-25 08:33N 50°28' W 001°01'2 2.1
2016-Aug-25 07:33N 50°28' W 000°58'1 0.7
2016-Aug-25 06:33N 50°28' W 000°57'1 0.5
2016-Aug-25 04:33N 50°29' W 000°55'1 0.7
2016-Aug-25 03:33N 50°28' W 000°55'1 0.5
2016-Aug-25 02:33N 50°29' W 000°55'0 0.3
2016-Aug-25 01:33N 50°28' W 000°55'5 4.9
2016-Aug-25 00:33N 50°24' W 000°50'9 8.9
2016-Aug-24 23:33N 50°16' W 000°52'10 9.6
2016-Aug-24 22:33N 50°06' W 000°52'8 8.2
2016-Aug-24 21:33N 49°60' W 000°44'10 9.7
2016-Aug-24 20:33N 49°50' W 000°39'1211.9
2016-Aug-24 19:33N 49°43' W 000°25'1212.1
2016-Aug-24 18:33N 49°37' W 000°08'1211.5
2016-Aug-24 17:33N 49°29' E 000°04'3 2.8
2016-Aug-24 16:32N 49°28' E 000°08'0 0.0
2016-Aug-24 15:32N 49°28' E 000°08'0 0.0
2016-Aug-24 14:31N 49°28' E 000°08'0 0.0
2016-Aug-24 13:28N 49°28' E 000°08'0 0.0
2016-Aug-24 12:32N 49°28' E 000°08'0 0.0
2016-Aug-24 11:31N 49°28' E 000°08'0 0.0
2016-Aug-24 10:32N 49°28' E 000°08'0 0.0
2016-Aug-24 09:31N 49°28' E 000°08'0 0.0
2016-Aug-24 08:31N 49°28' E 000°08'0 0.0
2016-Aug-24 07:31N 49°28' E 000°08'0 0.0
2016-Aug-24 06:31N 49°28' E 000°08'0 0.0
2016-Aug-24 04:31N 49°28' E 000°08'0 0.0
2016-Aug-24 03:31N 49°28' E 000°08'0 0.0
2016-Aug-24 02:31N 49°28' E 000°08'0 0.0
2016-Aug-24 01:31N 49°28' E 000°08'0 0.0
2016-Aug-24 00:31N 49°28' E 000°08'0 0.0
2016-Aug-23 23:31N 49°28' E 000°08'0 0.0
2016-Aug-23 22:32N 49°28' E 000°08'0 0.0
2016-Aug-23 21:31N 49°28' E 000°08'0 0.0
2016-Aug-23 20:31N 49°28' E 000°08'0 0.0
2016-Aug-23 19:31N 49°28' E 000°08'1 0.6
2016-Aug-23 18:34N 49°27' E 000°09'1212.1
2016-Aug-23 17:33N 49°32' W 000°08'8 8.2
2016-Aug-23 16:33N 49°40' W 000°11'1111.0
2016-Aug-23 15:33N 49°51' W 000°08'1110.9
2016-Aug-23 14:33N 50°02' W 000°05'1010.3
2016-Aug-23 13:33N 50°12' W 000°03'10 9.9
2016-Aug-23 12:33N 50°22' W 000°04'8 8.3
2016-Aug-23 11:33N 50°29' E 000°04'1010.0
2016-Aug-23 10:33N 50°31' E 000°19'1312.6
2016-Aug-23 09:31N 50°36' E 000°38'1714.4
2016-Aug-23 08:20N 50°46' E 001°00'1114.5
2016-Aug-23 07:34N 50°52' E 001°15'1413.6
2016-Aug-23 06:33N 51°02' E 001°29'1111.4
2016-Aug-23 05:33N 51°11' E 001°41'1110.5
2016-Aug-23 04:33N 51°19' E 001°51'9 9.4
2016-Aug-23 03:33N 51°25' E 002°04'1111.3
2016-Aug-23 02:33N 51°21' E 002°20'1211.5
2016-Aug-23 01:33N 51°23' E 002°39'1413.6
2016-Aug-23 00:33N 51°24' E 003°00'1514.5
2016-Aug-22 23:33N 51°25' E 003°24'1211.8
2016-Aug-22 22:33N 51°24' E 003°43'1111.2
2016-Aug-22 21:33N 51°26' E 004°00'1211.8
2016-Aug-22 20:33N 51°20' E 004°16'3 2.6
2016-Aug-22 19:32N 51°17' E 004°15'0 0.0
2016-Aug-22 18:32N 51°17' E 004°15'0 0.0
2016-Aug-22 17:32N 51°17' E 004°15'0 0.0
2016-Aug-22 16:32N 51°17' E 004°15'0 0.0
2016-Aug-22 15:32N 51°17' E 004°15'0 0.0
2016-Aug-22 14:32N 51°17' E 004°15'0 0.0
2016-Aug-22 13:32N 51°17' E 004°15'0 0.0
2016-Aug-22 12:29N 51°17' E 004°15'0 0.0
2016-Aug-22 11:32N 51°17' E 004°15'0 0.0
2016-Aug-22 10:32N 51°17' E 004°15'0 0.0
2016-Aug-22 09:32N 51°17' E 004°15'0 0.0
2016-Aug-22 08:32N 51°17' E 004°15'0 0.0
2016-Aug-22 07:32N 51°17' E 004°15'0 0.0
2016-Aug-22 06:32N 51°17' E 004°15'0 0.0
2016-Aug-22 05:32N 51°17' E 004°15'0 0.0
2016-Aug-22 04:32N 51°17' E 004°15'0 0.0
2016-Aug-22 03:32N 51°17' E 004°15'0 0.0
2016-Aug-22 02:32N 51°17' E 004°15'0 0.0
2016-Aug-22 01:32N 51°17' E 004°15'0 0.0
2016-Aug-22 00:32N 51°17' E 004°15'0 0.0
2016-Aug-21 23:32N 51°17' E 004°15'0 0.0
2016-Aug-21 22:32N 51°17' E 004°15'0 0.0
2016-Aug-21 21:32N 51°17' E 004°15'0 0.0
2016-Aug-21 20:32N 51°17' E 004°15'0 0.0
2016-Aug-21 19:32N 51°17' E 004°15'0 0.0
2016-Aug-21 18:32N 51°17' E 004°15'0 0.0
2016-Aug-21 17:32N 51°17' E 004°15'0 0.0
2016-Aug-21 16:32N 51°17' E 004°15'0 0.0
2016-Aug-21 15:32N 51°17' E 004°15'0 0.4
2016-Aug-21 14:33N 51°18' E 004°16'6 5.9
2016-Aug-21 13:33N 51°23' E 004°13'1010.2
2016-Aug-21 12:33N 51°23' E 003°56'1312.6
2016-Aug-21 11:33N 51°26' E 003°37'1413.6
2016-Aug-21 10:33N 51°24' E 003°15'1616.5
2016-Aug-21 09:34N 51°25' E 002°49'1110.8
2016-Aug-21 08:33N 51°22' E 002°33'1616.2
2016-Aug-21 07:33N 51°15' E 002°10'2020.0
2016-Aug-21 06:34N 51°05' E 001°42'2120.4
2016-Aug-21 05:33N 50°47' E 001°25'4419.4
2016-Aug-21 03:17N 50°25' E 000°25'1520.4
2016-Aug-21 02:33N 50°21' E 000°03'2020.0
2016-Aug-21 01:33N 50°15' W 000°27'8621.5
2016-Aug-20 21:32N 49°53' W 002°37'2222.7
2016-Aug-20 20:33N 49°45' W 003°10'7622.0
2016-Aug-20 17:05N 49°06' W 004°50'1321.7
2016-Aug-20 16:30N 48°58' W 005°06'2021.4
2016-Aug-20 15:33N 48°48' W 005°32'2020.0
2016-Aug-20 14:33N 48°31' W 005°48'58918.4
2016-Aug-19 06:31N 39°09' W 009°51'3618.1
2016-Aug-19 04:32N 38°34' W 009°45'1919.5
2016-Aug-19 03:34N 38°20' W 009°28'1919.2
2016-Aug-19 02:33N 38°06' W 009°11'1918.7
2016-Aug-19 01:33N 37°54' W 008°53'3 2.9
2016-Aug-19 00:31N 37°56' W 008°51'0 0.0
2016-Aug-18 23:31N 37°56' W 008°51'0 0.0
2016-Aug-18 22:31N 37°56' W 008°51'0 0.0
2016-Aug-18 21:31N 37°56' W 008°51'0 0.0
2016-Aug-18 20:31N 37°56' W 008°51'0 0.0
2016-Aug-18 19:31N 37°56' W 008°51'0 0.0
2016-Aug-18 18:31N 37°56' W 008°51'0 0.0
2016-Aug-18 17:25N 37°56' W 008°51'0 0.0
2016-Aug-18 16:31N 37°56' W 008°51'0 0.0
2016-Aug-18 15:31N 37°56' W 008°51'0 0.0
2016-Aug-18 14:31N 37°56' W 008°51'0 0.0
2016-Aug-18 13:31N 37°56' W 008°51'0 0.0
2016-Aug-18 12:31N 37°56' W 008°51'0 0.0
2016-Aug-18 11:28N 37°56' W 008°51'0 0.0
2016-Aug-18 10:31N 37°56' W 008°51'0 0.0
2016-Aug-18 09:31N 37°56' W 008°51'0 0.0
2016-Aug-18 08:31N 37°56' W 008°51'0 0.0
2016-Aug-18 07:33N 37°56' W 008°51'0 0.0
2016-Aug-18 06:33N 37°56' W 008°51'0 0.0
2016-Aug-18 05:34N 37°56' W 008°51'0 0.3
2016-Aug-18 04:33N 37°56' W 008°50'5 4.5
2016-Aug-18 03:33N 37°51' W 008°52'1212.0
2016-Aug-18 02:33N 37°40' W 008°58'1212.6
2016-Aug-18 01:33N 37°30' W 009°08'1212.0
2016-Aug-18 00:33N 37°19' W 009°13'1212.0
2016-Aug-17 23:33N 37°08' W 009°19'1111.4
2016-Aug-17 22:33N 36°57' W 009°20'1211.6
2016-Aug-17 21:33N 36°47' W 009°11'1111.4
2016-Aug-17 20:33N 36°42' W 008°59'1111.4
2016-Aug-17 19:33N 36°38' W 008°46'1211.8
2016-Aug-17 18:33N 36°34' W 008°32'1111.3
2016-Aug-17 17:33N 36°31' W 008°18'1111.4
2016-Aug-17 16:33N 36°27' W 008°05'1711.9
2016-Aug-17 15:09N 36°22' W 007°45'712.2
2016-Aug-17 14:33N 36°20' W 007°37'9112.6
2016-Aug-17 07:20N 35°58' W 005°47'911.2
2016-Aug-17 06:33N 35°58' W 005°36'1211.9
2016-Aug-17 05:34N 36°01' W 005°22'1312.7
2016-Aug-17 04:33N 36°05' W 005°07'1212.4
2016-Aug-17 03:33N 36°08' W 004°52'8311.7
2016-Aug-16 20:30N 36°18' W 003°11'1612.5
2016-Aug-16 19:14N 36°21' W 002°51'913.2
2016-Aug-16 18:33N 36°23' W 002°41'1313.3
2016-Aug-16 17:33N 36°24' W 002°24'1514.6
2016-Aug-16 16:32N 36°27' W 002°06'2219.2
2016-Aug-16 15:25N 36°33' W 001°40'1719.4
2016-Aug-16 14:33N 36°36' W 001°20'2519.3
2016-Aug-16 13:16N 36°43' W 000°50'3718.5
2016-Aug-16 11:17N 36°51' W 000°05'12418.4
2016-Aug-16 04:33N 37°22' E 002°26'  

Dump ship's entire track history